createdAt,value
2018-08-07T00:00:17.460Z,20.80
2018-08-07T00:02:46.631Z,20.80
2018-08-07T00:05:15.664Z,20.80
2018-08-07T00:10:16.827Z,20.80
2018-08-07T00:12:45.341Z,20.90
2018-08-07T00:15:14.288Z,20.80
2018-08-07T00:17:42.856Z,20.70
2018-08-07T00:20:13.621Z,20.70
2018-08-07T00:22:41.961Z,20.70
2018-08-07T00:25:11.286Z,20.80
2018-08-07T00:27:40.458Z,20.80
2018-08-07T00:30:10.809Z,20.70
2018-08-07T00:32:39.581Z,20.80
2018-08-07T00:35:10.331Z,20.80
2018-08-07T00:37:39.175Z,20.70
2018-08-07T00:40:10.458Z,20.70
2018-08-07T00:42:39.215Z,20.60
2018-08-07T00:45:09.779Z,20.70
2018-08-07T00:47:38.412Z,20.70
2018-08-07T00:50:10.943Z,20.60
2018-08-07T00:52:39.567Z,20.60
2018-08-07T00:55:08.294Z,20.70
2018-08-07T00:57:36.957Z,20.60
2018-08-07T01:00:07.624Z,20.60
2018-08-07T01:02:36.391Z,20.60
2018-08-07T01:05:06.186Z,20.60
2018-08-07T01:07:34.721Z,20.70
2018-08-07T01:10:03.418Z,20.70
2018-08-07T01:12:31.984Z,20.80
2018-08-07T01:15:00.526Z,20.60
2018-08-07T01:17:29.055Z,20.50
2018-08-07T01:19:57.629Z,20.50
2018-08-07T01:22:26.185Z,20.40
2018-08-07T01:24:54.746Z,20.40
2018-08-07T01:27:23.249Z,20.50
2018-08-07T01:29:51.785Z,20.40
2018-08-07T01:32:20.298Z,20.30
2018-08-07T01:34:49.322Z,20.30
2018-08-07T01:37:17.848Z,20.30
2018-08-07T01:39:46.358Z,20.30
2018-08-07T01:42:14.896Z,20.30
2018-08-07T01:44:43.442Z,20.40
2018-08-07T01:47:12.033Z,20.40
2018-08-07T01:49:40.566Z,20.40
2018-08-07T01:52:09.132Z,20.40
2018-08-07T01:54:37.657Z,20.30
2018-08-07T01:57:06.205Z,20.20
2018-08-07T01:59:34.778Z,20.30
2018-08-07T02:02:03.424Z,20.30
2018-08-07T02:04:31.972Z,20.30
2018-08-07T02:07:00.538Z,20.30
2018-08-07T02:09:29.082Z,20.30
2018-08-07T02:11:57.650Z,20.40
2018-08-07T02:14:26.788Z,20.50
2018-08-07T02:16:55.345Z,20.50
2018-08-07T02:21:52.098Z,20.50
2018-08-07T02:24:20.660Z,20.40
2018-08-07T02:26:49.249Z,20.40
2018-08-07T02:29:17.759Z,20.30
2018-08-07T02:31:46.296Z,20.20
2018-08-07T02:34:14.819Z,20.20
2018-08-07T02:36:43.375Z,20.20
2018-08-07T02:39:12.009Z,20.10
2018-08-07T02:41:40.561Z,20.00
2018-08-07T02:44:09.116Z,20.00
2018-08-07T02:46:37.666Z,20.10
2018-08-07T02:49:06.181Z,20.10
2018-08-07T02:51:34.743Z,20.20
2018-08-07T02:54:03.382Z,20.20
2018-08-07T02:56:32.016Z,20.30
2018-08-07T02:59:01.966Z,20.10
2018-08-07T03:01:30.520Z,20.10
2018-08-07T03:03:59.012Z,20.10
2018-08-07T03:06:27.618Z,20.10
2018-08-07T03:08:56.131Z,20.10
2018-08-07T03:11:24.732Z,20.10
2018-08-07T03:13:53.252Z,20.00
2018-08-07T03:16:21.802Z,20.00
2018-08-07T03:18:51.162Z,19.90
2018-08-07T03:21:19.708Z,19.70
2018-08-07T03:23:48.304Z,19.80
2018-08-07T03:26:16.870Z,19.80
2018-08-07T03:28:45.481Z,19.90
2018-08-07T03:31:14.001Z,20.00
2018-08-07T03:33:42.538Z,20.00
2018-08-07T03:36:11.056Z,20.00
2018-08-07T03:38:39.593Z,20.00
2018-08-07T03:41:08.121Z,19.90
2018-08-07T03:43:36.696Z,19.90
2018-08-07T03:46:07.352Z,20.00
2018-08-07T03:48:35.898Z,20.00
2018-08-07T03:51:04.513Z,20.20
2018-08-07T03:56:01.250Z,20.10
2018-08-07T03:58:29.794Z,20.10
2018-08-07T04:00:58.435Z,20.20
2018-08-07T04:03:27.014Z,20.30
2018-08-07T04:05:55.519Z,20.20
2018-08-07T04:08:24.052Z,20.20
2018-08-07T04:10:52.592Z,20.10
2018-08-07T04:13:21.121Z,20.20
2018-08-07T04:15:49.729Z,20.20
2018-08-07T04:18:18.301Z,20.30
2018-08-07T04:20:46.854Z,20.20
2018-08-07T04:23:15.409Z,20.30
2018-08-07T04:25:43.957Z,20.40
2018-08-07T04:28:12.494Z,20.50
2018-08-07T04:30:41.004Z,20.60
2018-08-07T04:33:09.537Z,20.80
2018-08-07T04:35:38.027Z,20.80
2018-08-07T04:38:06.581Z,20.90
2018-08-07T04:40:35.128Z,21.00
2018-08-07T04:43:03.685Z,20.90
2018-08-07T04:45:35.804Z,21.00
2018-08-07T04:48:10.774Z,21.00
2018-08-07T04:50:39.512Z,21.00
2018-08-07T04:53:13.787Z,21.10
2018-08-07T04:55:47.389Z,21.10
2018-08-07T04:58:20.714Z,21.20
2018-08-07T05:00:59.616Z,21.30
2018-08-07T05:03:33.897Z,21.30
2018-08-07T05:06:08.476Z,21.40
2018-08-07T05:08:42.945Z,21.50
2018-08-07T05:11:16.698Z,21.60
2018-08-07T05:13:51.027Z,21.70
2018-08-07T05:16:25.316Z,21.80
2018-08-07T05:18:54.159Z,21.90
2018-08-07T05:21:22.706Z,22.00
2018-08-07T05:23:52.232Z,22.20
2018-08-07T05:26:20.837Z,22.50
2018-08-07T05:28:49.415Z,22.60
2018-08-07T05:31:17.895Z,22.70
2018-08-07T05:33:51.564Z,22.80
2018-08-07T05:36:20.292Z,23.00
2018-08-07T05:38:48.834Z,23.20
2018-08-07T05:41:17.341Z,23.30
2018-08-07T05:43:45.900Z,23.40
2018-08-07T05:46:14.388Z,23.60
2018-08-07T05:48:42.915Z,23.70
2018-08-07T05:51:11.776Z,23.90
2018-08-07T05:53:40.063Z,24.00
2018-08-07T05:56:08.608Z,24.10
2018-08-07T05:58:37.149Z,24.30
2018-08-07T06:01:06.084Z,24.40
2018-08-07T06:03:34.609Z,24.60
2018-08-07T06:06:03.160Z,24.80
2018-08-07T06:08:31.704Z,24.90
2018-08-07T06:11:00.236Z,25.10
2018-08-07T06:13:28.770Z,25.30
2018-08-07T06:15:57.273Z,25.70
2018-08-07T06:20:54.050Z,26.10
2018-08-07T06:23:22.571Z,26.30
2018-08-07T06:25:51.096Z,26.60
2018-08-07T06:28:19.612Z,26.70
2018-08-07T06:30:48.129Z,26.70
2018-08-07T06:33:16.653Z,26.80
2018-08-07T06:35:45.256Z,26.80
2018-08-07T06:38:13.749Z,26.80
2018-08-07T06:40:42.275Z,26.70
2018-08-07T06:43:10.803Z,26.60
2018-08-07T06:45:39.349Z,26.80
2018-08-07T06:48:08.034Z,26.80
2018-08-07T06:50:36.635Z,27.00
2018-08-07T06:53:05.241Z,27.00
2018-08-07T06:55:33.788Z,27.10
2018-08-07T06:58:02.366Z,27.20
2018-08-07T07:00:31.044Z,27.10
2018-08-07T07:02:59.577Z,27.10
2018-08-07T07:05:28.194Z,27.30
2018-08-07T07:07:57.697Z,27.40
2018-08-07T07:10:26.397Z,27.30
2018-08-07T07:12:54.925Z,27.40
2018-08-07T07:15:23.476Z,27.60
2018-08-07T07:17:52.012Z,27.50
2018-08-07T07:20:20.571Z,27.70
2018-08-07T07:22:49.641Z,27.70
2018-08-07T07:25:18.342Z,27.90
2018-08-07T07:27:46.871Z,27.90
2018-08-07T07:30:18.482Z,28.10
2018-08-07T07:32:48.483Z,28.10
2018-08-07T07:35:18.040Z,28.20
2018-08-07T07:37:46.933Z,28.30
2018-08-07T07:40:16.043Z,28.50
2018-08-07T07:42:44.771Z,28.70
2018-08-07T07:45:15.587Z,28.80
2018-08-07T07:47:44.129Z,28.80
2018-08-07T07:50:15.201Z,29.10
2018-08-07T07:52:44.342Z,29.50
2018-08-07T07:55:14.007Z,30.00
2018-08-07T08:00:13.828Z,30.90
2018-08-07T08:02:42.381Z,31.40
2018-08-07T08:05:11.041Z,32.20
2018-08-07T08:07:40.001Z,33.20
2018-08-07T08:10:09.587Z,33.70
2018-08-07T08:12:38.843Z,34.10
2018-08-07T08:15:09.879Z,34.30
2018-08-07T08:17:38.441Z,34.20
2018-08-07T08:20:08.996Z,34.20
2018-08-07T08:22:37.563Z,34.00
2018-08-07T08:25:07.508Z,33.30
2018-08-07T08:27:36.075Z,33.10
2018-08-07T08:30:07.341Z,33.00
2018-08-07T08:32:36.004Z,32.90
2018-08-07T08:35:06.451Z,32.90
2018-08-07T08:37:34.969Z,33.00
2018-08-07T08:40:03.917Z,33.00
2018-08-07T08:42:32.495Z,33.00
2018-08-07T08:47:29.327Z,33.20
2018-08-07T08:49:57.908Z,33.30
2018-08-07T08:52:26.475Z,33.30
2018-08-07T08:54:55.066Z,33.20
2018-08-07T08:57:23.688Z,33.20
2018-08-07T08:59:52.365Z,33.50
2018-08-07T09:02:20.950Z,33.60
2018-08-07T09:04:49.587Z,33.40
2018-08-07T09:07:18.146Z,33.20
2018-08-07T09:09:46.700Z,33.40
2018-08-07T09:12:15.291Z,33.50
2018-08-07T09:14:43.970Z,33.50
2018-08-07T09:17:12.537Z,33.60
2018-08-07T09:19:41.447Z,33.70
2018-08-07T09:22:09.984Z,33.90
2018-08-07T09:24:38.550Z,34.00
2018-08-07T09:27:07.108Z,34.10
2018-08-07T09:29:35.672Z,34.30
2018-08-07T09:32:04.356Z,34.50
2018-08-07T09:34:32.923Z,35.00
2018-08-07T09:37:01.545Z,35.60
2018-08-07T09:39:30.163Z,35.70
2018-08-07T09:44:26.979Z,35.70
2018-08-07T09:49:23.745Z,36.60
2018-08-07T09:51:52.321Z,36.40
2018-08-07T09:54:20.917Z,36.20
2018-08-07T09:56:49.477Z,36.10
2018-08-07T09:59:18.040Z,36.10
2018-08-07T10:01:52.361Z,36.20
2018-08-07T10:04:20.929Z,36.30
2018-08-07T10:06:50.454Z,36.60
2018-08-07T10:09:19.094Z,37.20
2018-08-07T10:14:16.736Z,37.30
2018-08-07T10:16:45.454Z,37.20
2018-08-07T10:19:15.005Z,36.60
2018-08-07T10:21:44.390Z,36.50
2018-08-07T10:24:13.105Z,36.70
2018-08-07T10:26:42.078Z,37.20
2018-08-07T10:29:10.711Z,37.30
2018-08-07T10:31:39.281Z,37.40
2018-08-07T10:34:07.849Z,37.90
2018-08-07T10:36:36.541Z,38.80
2018-08-07T10:39:08.236Z,38.80
2018-08-07T10:41:36.999Z,38.50
2018-08-07T10:44:05.714Z,37.70
2018-08-07T10:46:34.339Z,36.50
2018-08-07T10:49:03.321Z,36.00
2018-08-07T10:51:31.853Z,35.50
2018-08-07T10:56:29.437Z,35.00
2018-08-07T10:58:58.002Z,34.90
2018-08-07T11:01:26.521Z,34.50
2018-08-07T11:03:55.117Z,34.40
2018-08-07T11:06:23.649Z,34.30
2018-08-07T11:08:53.742Z,34.40
2018-08-07T11:11:22.778Z,34.40
2018-08-07T11:13:51.618Z,34.20
2018-08-07T11:16:20.301Z,34.10
2018-08-07T11:18:48.886Z,33.90
2018-08-07T11:21:17.668Z,34.00
2018-08-07T11:23:46.305Z,34.20
2018-08-07T11:26:14.837Z,34.20
2018-08-07T11:28:43.379Z,34.20
2018-08-07T11:31:11.922Z,34.10
2018-08-07T11:33:40.487Z,34.00
2018-08-07T11:36:09.012Z,34.10
2018-08-07T11:38:37.576Z,34.10
2018-08-07T11:41:06.141Z,34.20
2018-08-07T11:43:35.029Z,34.20
2018-08-07T11:46:03.936Z,34.00
2018-08-07T11:48:33.117Z,34.00
2018-08-07T11:51:02.044Z,33.90
2018-08-07T11:53:31.165Z,34.00
2018-08-07T11:55:59.789Z,34.00
2018-08-07T11:58:28.341Z,34.10
2018-08-07T12:00:57.915Z,34.10
2018-08-07T12:03:26.533Z,34.00
2018-08-07T12:05:55.086Z,34.10
2018-08-07T12:08:24.524Z,34.10
2018-08-07T12:10:54.007Z,34.20
2018-08-07T12:13:22.596Z,34.30
2018-08-07T12:18:19.444Z,34.30
2018-08-07T12:20:47.996Z,34.40
2018-08-07T12:23:16.575Z,34.30
2018-08-07T12:25:45.112Z,34.30
2018-08-07T12:28:13.655Z,34.30
2018-08-07T12:30:42.179Z,34.30
2018-08-07T12:33:10.803Z,34.40
2018-08-07T12:35:39.337Z,34.40
2018-08-07T12:38:07.922Z,34.40
2018-08-07T12:40:36.453Z,34.40
2018-08-07T12:43:05.145Z,34.50
2018-08-07T12:45:33.750Z,34.50
2018-08-07T12:48:02.299Z,34.50
2018-08-07T12:50:30.816Z,34.60
2018-08-07T12:52:59.378Z,34.60
2018-08-07T12:55:27.973Z,34.50
2018-08-07T12:57:56.655Z,34.50
2018-08-07T13:00:26.880Z,34.50
2018-08-07T13:02:55.821Z,34.50
2018-08-07T13:05:24.447Z,34.50
2018-08-07T13:07:53.165Z,34.50
2018-08-07T13:10:22.846Z,34.50
2018-08-07T13:12:52.221Z,34.60
2018-08-07T13:15:21.550Z,34.60
2018-08-07T13:17:50.486Z,34.60
2018-08-07T13:20:19.072Z,34.60
2018-08-07T13:22:48.210Z,34.60
2018-08-07T13:25:19.161Z,34.50
2018-08-07T13:27:47.773Z,34.50
2018-08-07T13:30:18.518Z,34.40
2018-08-07T13:32:47.250Z,34.50
2018-08-07T13:35:16.201Z,34.60
2018-08-07T13:37:46.262Z,34.50
2018-08-07T13:40:16.894Z,34.50
2018-08-07T13:42:45.500Z,34.50
2018-08-07T13:45:16.030Z,34.60
2018-08-07T13:47:44.624Z,34.60
2018-08-07T13:50:14.941Z,34.50
2018-08-07T13:52:44.087Z,34.50
2018-08-07T13:55:13.916Z,34.50
2018-08-07T14:00:19.862Z,34.50
2018-08-07T14:02:48.989Z,34.40
2018-08-07T14:05:18.591Z,34.40
2018-08-07T14:07:48.303Z,34.50
2018-08-07T14:10:17.616Z,34.50
2018-08-07T14:12:46.201Z,34.50
2018-08-07T14:15:16.045Z,34.40
2018-08-07T14:17:45.104Z,34.40
2018-08-07T14:20:14.630Z,34.40
2018-08-07T14:22:43.258Z,34.40
2018-08-07T14:25:13.953Z,34.30
2018-08-07T14:27:42.468Z,34.30
2018-08-07T14:30:14.614Z,34.40
2018-08-07T14:32:43.129Z,34.30
2018-08-07T14:35:11.735Z,34.30
2018-08-07T14:37:41.913Z,34.40
2018-08-07T14:40:12.435Z,34.30
2018-08-07T14:42:42.629Z,34.40
2018-08-07T14:47:41.551Z,34.40
2018-08-07T14:50:13.735Z,34.40
2018-08-07T14:52:42.469Z,34.40
2018-08-07T14:55:11.705Z,34.40
2018-08-07T15:00:12.191Z,34.40
2018-08-07T15:02:40.993Z,34.40
2018-08-07T15:05:09.909Z,34.50
2018-08-07T15:07:38.710Z,34.50
2018-08-07T15:12:38.521Z,34.50
2018-08-07T15:15:10.674Z,34.50
2018-08-07T15:17:39.247Z,34.70
2018-08-07T15:20:09.286Z,34.90
2018-08-07T15:22:37.947Z,35.00
2018-08-07T15:25:08.970Z,35.00
2018-08-07T15:27:37.532Z,35.00
2018-08-07T15:32:35.397Z,35.00
2018-08-07T15:35:04.435Z,35.00
2018-08-07T15:37:32.968Z,34.90
2018-08-07T15:40:01.654Z,34.80
2018-08-07T15:42:30.188Z,34.70
2018-08-07T15:44:58.800Z,34.60
2018-08-07T15:47:27.417Z,34.50
2018-08-07T15:49:55.988Z,34.50
2018-08-07T15:52:24.570Z,34.50
2018-08-07T15:54:53.134Z,34.50
2018-08-07T15:57:21.680Z,34.50
2018-08-07T15:59:51.636Z,34.50
2018-08-07T16:02:20.210Z,34.50
2018-08-07T16:04:49.001Z,34.50
2018-08-07T16:07:17.651Z,34.50
2018-08-07T16:09:46.206Z,34.50
2018-08-07T16:12:14.750Z,34.40
2018-08-07T16:14:43.294Z,34.30
2018-08-07T16:17:14.044Z,34.30
2018-08-07T16:19:42.749Z,34.30
2018-08-07T16:22:11.312Z,34.20
2018-08-07T16:24:39.857Z,34.10
2018-08-07T16:27:08.386Z,34.10
2018-08-07T16:29:42.389Z,34.00
2018-08-07T16:32:11.165Z,34.00
2018-08-07T16:34:39.707Z,34.00
2018-08-07T16:37:08.274Z,34.00
2018-08-07T16:39:36.794Z,33.90
2018-08-07T16:42:05.354Z,33.90
2018-08-07T16:44:33.902Z,33.90
2018-08-07T16:47:02.441Z,33.80
2018-08-07T16:49:58.715Z,33.70
2018-08-07T16:52:27.285Z,33.70
2018-08-07T16:54:55.824Z,33.60
2018-08-07T16:57:24.415Z,33.50
2018-08-07T16:59:52.985Z,33.50
2018-08-07T17:02:21.876Z,33.40
2018-08-07T17:04:50.569Z,33.40
2018-08-07T17:07:19.243Z,33.40
2018-08-07T17:09:47.838Z,33.30
2018-08-07T17:12:16.472Z,33.30
2018-08-07T17:14:45.046Z,33.30
2018-08-07T17:17:13.620Z,33.40
2018-08-07T17:19:42.169Z,33.40
2018-08-07T17:22:10.768Z,33.40
2018-08-07T17:24:39.334Z,33.50
2018-08-07T17:27:07.940Z,33.60
2018-08-07T17:29:36.484Z,33.80
2018-08-07T17:32:05.157Z,33.80
2018-08-07T17:34:33.700Z,33.70
2018-08-07T17:37:02.245Z,33.60
2018-08-07T17:39:30.839Z,33.60
2018-08-07T17:41:59.373Z,33.60
2018-08-07T17:44:27.939Z,33.60
2018-08-07T17:46:57.263Z,33.50
2018-08-07T17:49:25.841Z,33.40
2018-08-07T17:51:54.377Z,33.50
2018-08-07T17:54:22.909Z,33.40
2018-08-07T17:56:51.492Z,33.30
2018-08-07T17:59:21.085Z,33.20
2018-08-07T18:01:49.601Z,33.20
2018-08-07T18:04:18.166Z,33.10
2018-08-07T18:06:46.772Z,33.10
2018-08-07T18:09:15.315Z,33.00
2018-08-07T18:11:43.840Z,33.00
2018-08-07T18:14:12.396Z,32.90
2018-08-07T18:16:40.918Z,32.80
2018-08-07T18:19:09.538Z,32.80
2018-08-07T18:21:38.143Z,32.70
2018-08-07T18:24:06.696Z,32.70
2018-08-07T18:26:35.221Z,32.60
2018-08-07T18:29:03.869Z,32.50
2018-08-07T18:31:32.401Z,32.40
2018-08-07T18:34:00.991Z,32.30
2018-08-07T18:36:29.567Z,32.20
2018-08-07T18:38:58.184Z,32.20
2018-08-07T18:41:27.742Z,32.20
2018-08-07T18:43:56.672Z,32.20
2018-08-07T18:46:25.253Z,32.20
2018-08-07T18:48:53.820Z,32.20
2018-08-07T18:51:23.301Z,32.20
2018-08-07T18:53:52.105Z,32.10
2018-08-07T18:56:20.650Z,32.20
2018-08-07T18:58:49.740Z,32.10
2018-08-07T19:01:18.256Z,32.10
2018-08-07T19:03:46.805Z,32.00
2018-08-07T19:06:15.405Z,31.90
2018-08-07T19:08:45.286Z,31.90
2018-08-07T19:11:13.820Z,31.80
2018-08-07T19:13:42.511Z,31.70
2018-08-07T19:16:11.021Z,31.60
2018-08-07T19:18:39.675Z,31.60
2018-08-07T19:21:08.332Z,31.60
2018-08-07T19:23:37.359Z,31.50
2018-08-07T19:26:05.998Z,31.40
2018-08-07T19:31:07.958Z,31.50
2018-08-07T19:33:36.621Z,31.50
2018-08-07T19:36:05.240Z,31.40
2018-08-07T19:38:34.634Z,31.30
2018-08-07T19:41:03.226Z,31.30
2018-08-07T19:43:31.801Z,31.20
2018-08-07T19:46:00.380Z,31.20
2018-08-07T19:48:30.129Z,31.10
2018-08-07T19:50:58.701Z,31.10
2018-08-07T19:53:27.270Z,31.10
2018-08-07T19:55:55.878Z,31.00
2018-08-07T19:58:24.429Z,31.00
2018-08-07T20:00:53.036Z,30.90
2018-08-07T20:03:21.646Z,30.90
2018-08-07T20:05:50.217Z,30.90
2018-08-07T20:08:18.762Z,30.80
2018-08-07T20:10:47.353Z,30.80
2018-08-07T20:13:15.889Z,30.80
2018-08-07T20:15:44.461Z,30.70
2018-08-07T20:18:13.059Z,30.70
2018-08-07T20:20:41.671Z,30.70
2018-08-07T20:23:10.156Z,30.50
2018-08-07T20:25:38.782Z,30.70
2018-08-07T20:28:07.343Z,30.60
2018-08-07T20:30:36.576Z,30.40
2018-08-07T20:33:05.124Z,30.20
2018-08-07T20:35:33.682Z,30.20
2018-08-07T20:38:02.257Z,30.10
2018-08-07T20:40:31.010Z,30.00
2018-08-07T20:42:59.629Z,29.70
2018-08-07T20:45:28.273Z,29.60
2018-08-07T20:47:56.822Z,29.50
2018-08-07T20:50:27.087Z,29.50
2018-08-07T20:52:56.365Z,29.50
2018-08-07T20:55:26.675Z,29.40
2018-08-07T20:57:55.290Z,29.30
2018-08-07T21:00:27.657Z,29.30
2018-08-07T21:02:56.185Z,29.20
2018-08-07T21:05:25.159Z,29.10
2018-08-07T21:07:53.973Z,29.10
2018-08-07T21:10:25.560Z,29.10
2018-08-07T21:12:54.345Z,29.10
2018-08-07T21:15:24.865Z,28.90
2018-08-07T21:17:55.325Z,28.90
2018-08-07T21:20:25.512Z,28.90
2018-08-07T21:22:54.565Z,28.90
2018-08-07T21:25:23.997Z,28.70
2018-08-07T21:27:56.093Z,28.70
2018-08-07T21:30:27.884Z,28.70
2018-08-07T21:32:57.965Z,28.70
2018-08-07T21:35:26.591Z,28.60
2018-08-07T21:37:55.141Z,28.60
2018-08-07T21:40:24.361Z,28.50
2018-08-07T21:42:54.634Z,28.50
2018-08-07T21:45:23.212Z,28.30
2018-08-07T21:47:52.091Z,28.30
2018-08-07T21:50:23.114Z,28.20
2018-08-07T21:52:51.636Z,28.20
2018-08-07T21:55:20.734Z,28.20
2018-08-07T21:57:50.590Z,28.10
2018-08-07T22:00:53.760Z,28.00
2018-08-07T22:03:22.681Z,28.00
2018-08-07T22:05:51.621Z,27.40
2018-08-07T22:08:20.296Z,27.90
2018-08-07T22:10:48.925Z,27.80
2018-08-07T22:13:17.463Z,27.90
2018-08-07T22:15:46.108Z,27.90
2018-08-07T22:18:14.635Z,27.70
2018-08-07T22:20:43.578Z,27.70
2018-08-07T22:35:33.895Z,27.40
2018-08-07T22:50:23.650Z,26.90
2018-08-07T22:55:20.825Z,26.80
2018-08-07T22:57:51.734Z,28.80
2018-08-07T23:00:21.613Z,26.60
2018-08-07T23:02:49.985Z,26.60
2018-08-07T23:05:19.064Z,26.50
2018-08-07T23:07:47.673Z,26.50
2018-08-07T23:10:20.037Z,26.50
2018-08-07T23:12:48.616Z,26.60
2018-08-07T23:15:18.835Z,26.70
2018-08-07T23:17:47.630Z,26.80
2018-08-07T23:20:17.641Z,27.10
2018-08-07T23:22:46.248Z,27.20
2018-08-07T23:25:14.930Z,27.20
2018-08-07T23:27:43.558Z,27.30
2018-08-07T23:30:13.653Z,27.30
2018-08-07T23:32:42.201Z,27.40
2018-08-07T23:35:11.085Z,27.50
2018-08-07T23:37:39.658Z,27.70
2018-08-07T23:40:09.691Z,27.70
2018-08-07T23:42:38.594Z,27.70
2018-08-07T23:45:08.690Z,27.70
2018-08-07T23:47:37.353Z,27.80
2018-08-07T23:50:05.970Z,27.80
2018-08-07T23:52:34.538Z,28.00
2018-08-07T23:55:03.092Z,28.20
2018-08-07T23:57:31.646Z,28.20
